createdAt,value
2023-07-24T00:03:35.901Z,68.22
2023-07-24T00:08:41.401Z,68.26
2023-07-24T00:13:47.338Z,68.31
2023-07-24T00:18:52.772Z,68.35
2023-07-24T00:23:58.354Z,68.38
2023-07-24T00:29:04.019Z,68.40
2023-07-24T00:34:09.526Z,68.41
2023-07-24T00:39:14.965Z,68.43
2023-07-24T00:44:21.420Z,68.47
2023-07-24T00:49:27.479Z,68.52
2023-07-24T00:54:33.901Z,68.58
2023-07-24T00:59:39.339Z,68.62
2023-07-24T01:04:44.737Z,68.67
2023-07-24T01:09:52.487Z,68.71
2023-07-24T01:15:01.180Z,68.75
2023-07-24T01:20:07.164Z,68.78
2023-07-24T01:25:23.494Z,68.82
2023-07-24T01:30:29.167Z,68.87
2023-07-24T01:35:34.970Z,68.89
2023-07-24T01:40:41.201Z,68.90
2023-07-24T01:45:46.812Z,68.91
2023-07-24T01:50:52.272Z,68.97
2023-07-24T01:55:57.672Z,69.07
2023-07-24T02:01:03.094Z,69.16
2023-07-24T02:06:08.404Z,69.21
2023-07-24T02:11:13.683Z,69.27
2023-07-24T02:16:19.643Z,69.33
2023-07-24T02:21:25.214Z,69.39
2023-07-24T02:26:33.603Z,69.45
2023-07-24T02:31:41.618Z,69.50
2023-07-24T02:36:47.090Z,69.56
2023-07-24T02:41:52.580Z,69.59
2023-07-24T02:46:58.101Z,69.54
2023-07-24T02:52:03.614Z,69.51
2023-07-24T02:57:09.666Z,69.57
2023-07-24T03:02:16.625Z,69.61
2023-07-24T03:07:22.188Z,69.73
2023-07-24T03:12:27.853Z,69.83
2023-07-24T03:17:33.403Z,69.92
2023-07-24T03:22:38.868Z,70.02
2023-07-24T03:27:46.365Z,70.12
2023-07-24T03:32:52.179Z,70.19
2023-07-24T03:37:57.748Z,70.21
2023-07-24T03:43:05.083Z,70.21
2023-07-24T03:48:10.731Z,70.20
2023-07-24T03:53:16.177Z,70.19
2023-07-24T03:58:21.770Z,70.13
2023-07-24T04:03:27.352Z,70.09
2023-07-24T04:08:32.828Z,70.10
2023-07-24T04:13:38.407Z,70.19
2023-07-24T04:18:43.993Z,70.33
2023-07-24T04:23:49.436Z,70.51
2023-07-24T04:28:54.995Z,70.73
2023-07-24T04:34:00.663Z,70.80
2023-07-24T04:39:06.110Z,70.72
2023-07-24T04:44:11.504Z,70.67
2023-07-24T04:49:17.126Z,70.70
2023-07-24T04:54:22.751Z,70.79
2023-07-24T04:59:28.342Z,70.84
2023-07-24T05:04:33.764Z,70.82
2023-07-24T05:09:39.154Z,70.82
2023-07-24T05:14:44.547Z,70.80
2023-07-24T05:19:50.117Z,70.76
2023-07-24T05:24:55.632Z,70.74
2023-07-24T05:30:01.108Z,70.72
2023-07-24T05:35:07.395Z,70.69
2023-07-24T05:40:13.428Z,70.66
2023-07-24T05:45:19.223Z,70.62
2023-07-24T05:50:25.118Z,70.60
2023-07-24T05:55:30.515Z,70.53
2023-07-24T06:00:37.043Z,70.40
2023-07-24T06:05:42.709Z,70.26
2023-07-24T06:10:48.661Z,70.09
2023-07-24T06:15:55.122Z,69.93
2023-07-24T06:21:00.917Z,69.76
2023-07-24T06:26:06.815Z,69.59
2023-07-24T06:31:12.987Z,69.41
2023-07-24T06:36:19.652Z,69.27
2023-07-24T06:41:25.567Z,69.17
2023-07-24T06:46:36.683Z,69.06
2023-07-24T06:51:42.935Z,68.91
2023-07-24T06:56:49.092Z,68.82
2023-07-24T07:01:54.812Z,68.68
2023-07-24T07:07:01.252Z,68.60
2023-07-24T07:12:08.577Z,68.45
2023-07-24T07:17:14.686Z,68.33
2023-07-24T07:22:20.979Z,68.28
2023-07-24T07:27:26.358Z,68.20
2023-07-24T07:32:31.643Z,68.06
2023-07-24T07:37:38.520Z,67.87
2023-07-24T07:42:45.076Z,67.74
2023-07-24T07:47:51.674Z,67.61
2023-07-24T07:52:58.319Z,67.39
2023-07-24T07:58:04.654Z,67.20
2023-07-24T08:03:10.114Z,66.99
2023-07-24T08:08:16.873Z,66.88
2023-07-24T08:13:23.690Z,66.76
2023-07-24T08:18:30.528Z,66.57
2023-07-24T08:23:36.628Z,66.28
2023-07-24T08:28:44.378Z,66.10
2023-07-24T08:33:51.095Z,66.01
2023-07-24T08:38:57.664Z,65.88
2023-07-24T08:44:04.491Z,65.79
2023-07-24T08:49:14.573Z,65.63
2023-07-24T08:54:22.716Z,65.47
2023-07-24T08:59:29.179Z,65.36
2023-07-24T09:04:34.927Z,64.98
2023-07-24T09:09:42.774Z,64.64
2023-07-24T09:14:49.280Z,64.34
2023-07-24T09:20:00.326Z,64.15
2023-07-24T09:25:07.428Z,64.04
2023-07-24T09:30:17.070Z,63.94
2023-07-24T09:35:27.516Z,63.80
2023-07-24T09:40:40.574Z,63.68
2023-07-24T09:45:46.324Z,63.56
2023-07-24T09:50:56.560Z,63.48
2023-07-24T09:56:05.831Z,63.36
2023-07-24T10:01:11.785Z,62.97
2023-07-24T10:06:17.736Z,62.97
2023-07-24T10:11:23.619Z,62.73
2023-07-24T10:16:29.240Z,62.49
2023-07-24T10:21:34.963Z,62.23
2023-07-24T10:26:40.893Z,62.02
2023-07-24T10:31:55.369Z,62.00
2023-07-24T10:37:06.673Z,62.07
2023-07-24T10:42:13.069Z,61.96
2023-07-24T10:47:18.802Z,62.05
2023-07-24T10:52:32.368Z,61.98
2023-07-24T10:57:37.920Z,61.99
2023-07-24T11:02:43.340Z,61.91
2023-07-24T11:07:48.993Z,61.90
2023-07-24T11:12:55.325Z,61.92
2023-07-24T11:18:00.703Z,61.86
2023-07-24T11:23:06.208Z,61.94
2023-07-24T11:28:12.786Z,61.87
2023-07-24T11:33:19.944Z,61.76
2023-07-24T11:38:25.476Z,61.67
2023-07-24T11:43:31.336Z,61.62
2023-07-24T11:48:44.468Z,61.55
2023-07-24T11:53:50.249Z,61.47
2023-07-24T11:58:55.773Z,61.37
2023-07-24T12:04:01.233Z,61.25
2023-07-24T12:09:08.083Z,61.10
2023-07-24T12:14:13.673Z,60.79
2023-07-24T12:19:19.591Z,60.44
2023-07-24T12:24:25.551Z,60.33
2023-07-24T12:29:31.504Z,60.06
2023-07-24T12:34:36.853Z,60.12
2023-07-24T12:39:42.671Z,60.18
2023-07-24T12:44:48.857Z,60.06
2023-07-24T12:49:57.560Z,60.09
2023-07-24T12:55:03.356Z,59.96
2023-07-24T13:00:11.025Z,59.74
2023-07-24T13:05:17.249Z,59.36
2023-07-24T13:10:23.016Z,59.25
2023-07-24T13:15:28.606Z,59.42
2023-07-24T13:20:34.236Z,59.50
2023-07-24T13:25:39.956Z,59.49
2023-07-24T13:30:46.096Z,59.20
2023-07-24T13:35:51.781Z,58.99
2023-07-24T13:40:57.761Z,58.74
2023-07-24T13:46:04.624Z,58.52
2023-07-24T13:51:10.964Z,58.36
2023-07-24T14:02:35.675Z,58.20
2023-07-24T14:07:41.390Z,58.17
2023-07-24T14:12:46.771Z,58.14
2023-07-24T14:17:52.294Z,58.11
2023-07-24T14:22:57.768Z,57.93
2023-07-24T14:28:03.069Z,57.65
2023-07-24T14:33:12.120Z,57.53
2023-07-24T14:38:17.564Z,57.38
2023-07-24T14:43:22.883Z,57.36
2023-07-24T14:48:28.727Z,57.24
2023-07-24T14:53:34.119Z,57.07
2023-07-24T14:58:39.570Z,56.98
2023-07-24T15:03:45.266Z,56.83
2023-07-24T15:08:54.926Z,56.38
2023-07-24T15:14:00.413Z,56.08
2023-07-24T15:19:05.830Z,55.68
2023-07-24T15:24:11.816Z,55.50
2023-07-24T15:29:19.854Z,55.27
2023-07-24T15:34:26.247Z,55.21
2023-07-24T15:39:31.759Z,54.96
2023-07-24T15:44:37.369Z,54.70
2023-07-24T15:49:42.909Z,54.56
2023-07-24T15:54:48.292Z,54.34
2023-07-24T15:59:53.733Z,54.13
2023-07-24T16:04:59.177Z,53.87
2023-07-24T16:10:04.616Z,53.65
2023-07-24T16:15:11.544Z,53.35
2023-07-24T16:20:17.597Z,53.16
2023-07-24T16:25:22.967Z,52.89
2023-07-24T16:30:28.375Z,52.74
2023-07-24T16:35:33.972Z,52.67
2023-07-24T16:40:39.419Z,52.66
2023-07-24T16:46:04.206Z,52.47
2023-07-24T16:51:10.460Z,52.18
2023-07-24T16:56:15.855Z,52.05
2023-07-24T17:01:21.214Z,51.70
2023-07-24T17:06:26.936Z,51.45
2023-07-24T17:11:32.697Z,51.18
2023-07-24T17:16:38.211Z,50.94
2023-07-24T17:21:44.772Z,50.80
2023-07-24T17:26:49.999Z,50.75
2023-07-24T17:31:55.175Z,50.73
2023-07-24T17:37:00.531Z,50.72
2023-07-24T17:42:06.372Z,50.74
2023-07-24T17:47:11.819Z,50.77
2023-07-24T17:52:17.567Z,50.80
2023-07-24T17:57:22.827Z,50.87
2023-07-24T18:02:28.367Z,51.00
2023-07-24T18:07:35.196Z,51.11
2023-07-24T18:12:40.524Z,51.16
2023-07-24T18:17:47.054Z,51.21
2023-07-24T18:22:52.521Z,51.27
2023-07-24T18:27:58.115Z,51.33
2023-07-24T18:33:03.964Z,51.43
2023-07-24T18:38:11.383Z,51.65
2023-07-24T18:43:16.931Z,51.98
2023-07-24T18:48:22.370Z,52.14
2023-07-24T18:53:28.043Z,52.23
2023-07-24T18:58:33.596Z,52.33
2023-07-24T19:03:39.319Z,52.48
2023-07-24T19:08:44.833Z,52.61
2023-07-24T19:13:50.226Z,52.71
2023-07-24T19:18:55.587Z,52.86
2023-07-24T19:24:00.897Z,52.99
2023-07-24T19:29:06.324Z,53.13
2023-07-24T19:35:01.683Z,53.27
2023-07-24T19:40:08.435Z,53.44
2023-07-24T19:45:13.991Z,53.59
2023-07-24T19:50:19.681Z,53.73
2023-07-24T19:55:25.535Z,53.87
2023-07-24T20:00:33.082Z,54.01
2023-07-24T20:05:38.923Z,54.13
2023-07-24T20:10:47.343Z,54.22
2023-07-24T20:15:53.392Z,54.35
2023-07-24T20:20:59.334Z,54.45
2023-07-24T20:26:06.093Z,54.58
2023-07-24T20:31:12.404Z,54.69
2023-07-24T20:36:18.765Z,54.82
2023-07-24T20:41:24.485Z,54.93
2023-07-24T20:46:31.246Z,55.04
2023-07-24T20:51:37.047Z,55.13
2023-07-24T20:56:43.275Z,55.24
2023-07-24T21:01:48.958Z,55.34
2023-07-24T21:06:55.339Z,55.43
2023-07-24T21:12:01.504Z,55.52
2023-07-24T21:17:07.839Z,55.61
2023-07-24T21:22:14.708Z,55.69
2023-07-24T21:27:20.607Z,55.78
2023-07-24T21:32:26.294Z,55.88
2023-07-24T21:37:32.030Z,56.02
2023-07-24T21:42:37.424Z,56.14
2023-07-24T21:47:43.192Z,56.26
2023-07-24T21:52:48.678Z,56.36
2023-07-24T21:57:56.414Z,56.48
2023-07-24T22:03:02.536Z,56.56
2023-07-24T22:08:08.671Z,56.64
2023-07-24T22:13:14.055Z,56.73
2023-07-24T22:18:19.608Z,56.89
2023-07-24T22:23:26.024Z,57.09
2023-07-24T22:28:31.832Z,57.28
2023-07-24T22:33:38.303Z,57.45
2023-07-24T22:38:43.750Z,57.59
2023-07-24T22:43:49.186Z,57.76
2023-07-24T22:48:54.481Z,57.97
2023-07-24T22:53:59.887Z,58.11
2023-07-24T22:59:25.419Z,58.27
2023-07-24T23:04:31.158Z,58.46
2023-07-24T23:09:36.943Z,58.64
2023-07-24T23:14:42.651Z,58.77
2023-07-24T23:19:48.051Z,58.92
2023-07-24T23:24:53.743Z,59.02
2023-07-24T23:30:02.141Z,59.12
2023-07-24T23:35:08.114Z,59.21
2023-07-24T23:40:14.196Z,59.31
2023-07-24T23:45:19.784Z,59.32
2023-07-24T23:50:25.302Z,59.35
2023-07-24T23:55:32.722Z,59.39
